sensor_id;sensor_type;location;lat;lon;timestamp;pressure;altitude;pressure_sealevel;temperature;humidity
52949;BME280;38812;50.942;3.644;2022-08-01T00:01:36;101344.94;;;18.89;100.00
52949;BME280;38812;50.942;3.644;2022-08-01T00:04:03;101357.25;;;18.91;100.00
52949;BME280;38812;50.942;3.644;2022-08-01T00:06:29;101358.09;;;18.92;100.00
52949;BME280;38812;50.942;3.644;2022-08-01T00:08:54;101301.56;;;18.68;100.00
52949;BME280;38812;50.942;3.644;2022-08-01T00:11:20;101342.13;;;18.92;100.00
52949;BME280;38812;50.942;3.644;2022-08-01T00:13:46;101347.38;;;18.93;100.00
52949;BME280;38812;50.942;3.644;2022-08-01T00:16:11;101345.44;;;18.97;100.00
52949;BME280;38812;50.942;3.644;2022-08-01T00:18:36;101323.66;;;18.89;100.00
52949;BME280;38812;50.942;3.644;2022-08-01T00:21:03;101327.69;;;18.78;100.00
52949;BME280;38812;50.942;3.644;2022-08-01T00:23:29;101365.03;;;18.96;100.00
52949;BME280;38812;50.942;3.644;2022-08-01T00:25:55;101369.34;;;18.98;100.00
52949;BME280;38812;50.942;3.644;2022-08-01T00:28:20;101361.28;;;19.00;100.00
52949;BME280;38812;50.942;3.644;2022-08-01T00:30:45;101353.78;;;18.89;100.00
52949;BME280;38812;50.942;3.644;2022-08-01T00:33:11;101336.47;;;18.80;100.00
52949;BME280;38812;50.942;3.644;2022-08-01T00:35:36;101357.81;;;18.98;100.00
52949;BME280;38812;50.942;3.644;2022-08-01T00:38:01;101334.81;;;18.78;100.00
52949;BME280;38812;50.942;3.644;2022-08-01T00:40:27;101352.56;;;18.96;100.00
52949;BME280;38812;50.942;3.644;2022-08-01T00:42:52;101364.88;;;18.99;100.00
52949;BME280;38812;50.942;3.644;2022-08-01T00:45:18;101370.34;;;18.96;100.00
52949;BME280;38812;50.942;3.644;2022-08-01T00:47:43;101343.22;;;18.88;100.00
52949;BME280;38812;50.942;3.644;2022-08-01T00:50:10;101371.94;;;19.00;100.00
52949;BME280;38812;50.942;3.644;2022-08-01T00:52:36;101375.66;;;18.96;100.00
52949;BME280;38812;50.942;3.644;2022-08-01T00:55:03;101354.72;;;18.88;100.00
52949;BME280;38812;50.942;3.644;2022-08-01T00:57:29;101367.47;;;19.00;100.00
52949;BME280;38812;50.942;3.644;2022-08-01T00:59:55;101313.22;;;18.65;100.00
52949;BME280;38812;50.942;3.644;2022-08-01T01:02:21;101332.50;;;18.89;100.00
52949;BME280;38812;50.942;3.644;2022-08-01T01:04:46;101330.91;;;18.85;100.00
52949;BME280;38812;50.942;3.644;2022-08-01T01:07:27;101336.34;;;18.83;100.00
52949;BME280;38812;50.942;3.644;2022-08-01T01:10:10;101324.91;;;18.81;100.00
52949;BME280;38812;50.942;3.644;2022-08-01T01:12:59;101324.25;;;18.76;100.00
52949;BME280;38812;50.942;3.644;2022-08-01T01:15:32;101299.41;;;18.76;100.00
52949;BME280;38812;50.942;3.644;2022-08-01T01:18:12;101300.28;;;18.76;100.00
52949;BME280;38812;50.942;3.644;2022-08-01T01:20:42;101273.31;;;18.65;100.00
52949;BME280;38812;50.942;3.644;2022-08-01T01:31:25;101287.91;;;18.75;100.00
52949;BME280;38812;50.942;3.644;2022-08-01T01:33:54;101285.41;;;18.72;100.00
52949;BME280;38812;50.942;3.644;2022-08-01T01:36:21;101283.53;;;18.74;100.00
52949;BME280;38812;50.942;3.644;2022-08-01T01:38:49;101272.94;;;18.73;100.00
52949;BME280;38812;50.942;3.644;2022-08-01T01:41:17;101282.16;;;18.66;100.00
52949;BME280;38812;50.942;3.644;2022-08-01T01:43:45;101266.53;;;18.58;100.00
52949;BME280;38812;50.942;3.644;2022-08-01T01:46:15;101267.69;;;18.71;100.00
52949;BME280;38812;50.942;3.644;2022-08-01T01:48:44;101284.31;;;18.76;100.00
52949;BME280;38812;50.942;3.644;2022-08-01T01:51:12;101291.38;;;18.77;100.00
52949;BME280;38812;50.942;3.644;2022-08-01T01:53:38;101296.75;;;18.76;100.00
52949;BME280;38812;50.942;3.644;2022-08-01T01:56:05;101303.41;;;18.84;100.00
52949;BME280;38812;50.942;3.644;2022-08-01T01:58:32;101280.22;;;18.69;100.00
52949;BME280;38812;50.942;3.644;2022-08-01T02:01:00;101291.50;;;18.74;100.00
52949;BME280;38812;50.942;3.644;2022-08-01T02:03:27;101282.81;;;18.71;100.00
52949;BME280;38812;50.942;3.644;2022-08-01T02:05:55;101296.69;;;18.77;100.00
52949;BME280;38812;50.942;3.644;2022-08-01T02:08:22;101297.97;;;18.88;100.00
52949;BME280;38812;50.942;3.644;2022-08-01T02:10:50;101244.59;;;18.53;100.00
52949;BME280;38812;50.942;3.644;2022-08-01T02:13:38;101243.94;;;18.48;100.00
52949;BME280;38812;50.942;3.644;2022-08-01T02:16:04;101263.38;;;18.69;100.00
52949;BME280;38812;50.942;3.644;2022-08-01T02:18:31;101231.94;;;18.58;100.00
52949;BME280;38812;50.942;3.644;2022-08-01T02:20:59;101259.56;;;18.74;100.00
52949;BME280;38812;50.942;3.644;2022-08-01T02:23:28;101237.56;;;18.52;100.00
52949;BME280;38812;50.942;3.644;2022-08-01T02:25:57;101195.88;;;18.34;100.00
52949;BME280;38812;50.942;3.644;2022-08-01T02:28:33;101226.78;;;18.55;100.00
52949;BME280;38812;50.942;3.644;2022-08-01T02:31:06;101261.59;;;18.69;100.00
52949;BME280;38812;50.942;3.644;2022-08-01T02:33:38;101259.19;;;18.44;100.00
52949;BME280;38812;50.942;3.644;2022-08-01T02:36:05;101299.03;;;18.46;100.00
52949;BME280;38812;50.942;3.644;2022-08-01T02:38:35;101247.59;;;18.08;100.00
52949;BME280;38812;50.942;3.644;2022-08-01T02:41:08;101260.84;;;18.09;100.00
52949;BME280;38812;50.942;3.644;2022-08-01T02:43:37;101247.19;;;18.17;100.00
52949;BME280;38812;50.942;3.644;2022-08-01T02:46:06;101260.69;;;18.12;100.00
52949;BME280;38812;50.942;3.644;2022-08-01T02:48:35;101250.34;;;18.06;100.00
52949;BME280;38812;50.942;3.644;2022-08-01T02:51:02;101250.34;;;18.06;100.00
52949;BME280;38812;50.942;3.644;2022-08-01T02:53:31;101268.53;;;18.15;100.00
52949;BME280;38812;50.942;3.644;2022-08-01T02:55:58;101260.56;;;18.15;100.00
52949;BME280;38812;50.942;3.644;2022-08-01T02:58:25;101278.53;;;18.29;100.00
52949;BME280;38812;50.942;3.644;2022-08-01T03:00:51;101273.94;;;18.33;100.00
52949;BME280;38812;50.942;3.644;2022-08-01T03:03:18;101264.03;;;18.18;100.00
52949;BME280;38812;50.942;3.644;2022-08-01T03:05:44;101277.75;;;18.27;100.00
52949;BME280;38812;50.942;3.644;2022-08-01T03:08:11;101267.03;;;18.29;100.00
52949;BME280;38812;50.942;3.644;2022-08-01T03:10:40;101264.56;;;18.24;100.00
52949;BME280;38812;50.942;3.644;2022-08-01T03:13:08;101261.13;;;18.22;100.00
52949;BME280;38812;50.942;3.644;2022-08-01T03:15:37;101272.63;;;18.23;100.00
52949;BME280;38812;50.942;3.644;2022-08-01T03:18:05;101264.66;;;18.23;100.00
52949;BME280;38812;50.942;3.644;2022-08-01T03:20:32;101269.75;;;18.27;100.00
52949;BME280;38812;50.942;3.644;2022-08-01T03:23:00;101259.91;;;18.29;100.00
52949;BME280;38812;50.942;3.644;2022-08-01T03:25:27;101256.41;;;18.29;100.00
52949;BME280;38812;50.942;3.644;2022-08-01T03:27:56;101258.13;;;18.30;100.00
52949;BME280;38812;50.942;3.644;2022-08-01T03:30:25;101273.81;;;18.36;100.00
52949;BME280;38812;50.942;3.644;2022-08-01T03:32:51;101252.94;;;18.27;100.00
52949;BME280;38812;50.942;3.644;2022-08-01T03:35:17;101275.47;;;18.38;100.00
52949;BME280;38812;50.942;3.644;2022-08-01T03:37:47;101274.06;;;18.30;100.00
52949;BME280;38812;50.942;3.644;2022-08-01T03:40:30;101271.28;;;18.33;100.00
52949;BME280;38812;50.942;3.644;2022-08-01T03:43:05;101273.16;;;18.31;100.00
52949;BME280;38812;50.942;3.644;2022-08-01T03:45:37;101264.56;;;18.24;100.00
52949;BME280;38812;50.942;3.644;2022-08-01T03:48:13;101276.88;;;18.27;100.00
52949;BME280;38812;50.942;3.644;2022-08-01T03:50:43;101274.28;;;18.25;100.00
52949;BME280;38812;50.942;3.644;2022-08-01T03:53:11;101253.22;;;18.21;100.00
52949;BME280;38812;50.942;3.644;2022-08-01T03:55:38;101266.56;;;18.19;100.00
52949;BME280;38812;50.942;3.644;2022-08-01T03:58:05;101268.31;;;18.20;100.00
52949;BME280;38812;50.942;3.644;2022-08-01T04:00:31;101281.25;;;18.28;100.00
52949;BME280;38812;50.942;3.644;2022-08-01T04:02:57;101261.97;;;18.23;100.00
52949;BME280;38812;50.942;3.644;2022-08-01T04:05:23;101272.56;;;18.24;100.00
52949;BME280;38812;50.942;3.644;2022-08-01T04:07:50;101304.22;;;18.49;100.00
52949;BME280;38812;50.942;3.644;2022-08-01T04:10:25;101301.19;;;18.38;100.00
52949;BME280;38812;50.942;3.644;2022-08-01T04:12:51;101296.00;;;18.35;100.00
52949;BME280;38812;50.942;3.644;2022-08-01T04:15:16;101291.34;;;18.40;100.00
52949;BME280;38812;50.942;3.644;2022-08-01T04:17:42;101270.63;;;18.28;100.00
52949;BME280;38812;50.942;3.644;2022-08-01T04:20:08;101307.59;;;18.34;100.00
52949;BME280;38812;50.942;3.644;2022-08-01T04:22:33;101287.31;;;18.31;100.00
52949;BME280;38812;50.942;3.644;2022-08-01T04:25:00;101274.66;;;18.18;100.00
52949;BME280;38812;50.942;3.644;2022-08-01T04:27:29;101274.50;;;18.21;100.00
52949;BME280;38812;50.942;3.644;2022-08-01T04:29:57;101290.16;;;18.27;100.00
52949;BME280;38812;50.942;3.644;2022-08-01T04:32:25;101289.97;;;18.31;100.00
52949;BME280;38812;50.942;3.644;2022-08-01T04:34:52;101314.63;;;18.54;100.00
52949;BME280;38812;50.942;3.644;2022-08-01T04:37:22;101306.34;;;18.41;100.00
52949;BME280;38812;50.942;3.644;2022-08-01T04:39:51;101324.22;;;18.39;100.00
52949;BME280;38812;50.942;3.644;2022-08-01T04:42:18;101303.47;;;18.27;100.00
52949;BME280;38812;50.942;3.644;2022-08-01T04:44:44;101326.88;;;18.39;100.00
52949;BME280;38812;50.942;3.644;2022-08-01T04:47:10;101332.31;;;18.36;100.00
52949;BME280;38812;50.942;3.644;2022-08-01T04:49:36;101335.91;;;18.35;100.00
52949;BME280;38812;50.942;3.644;2022-08-01T04:52:03;101317.75;;;18.24;100.00
52949;BME280;38812;50.942;3.644;2022-08-01T04:54:30;101344.09;;;18.30;100.00
52949;BME280;38812;50.942;3.644;2022-08-01T04:56:59;101364.09;;;18.39;100.00
52949;BME280;38812;50.942;3.644;2022-08-01T04:59:28;101344.38;;;18.24;100.00
52949;BME280;38812;50.942;3.644;2022-08-01T05:02:17;101350.16;;;18.34;100.00
52949;BME280;38812;50.942;3.644;2022-08-01T05:04:46;101353.59;;;18.36;100.00
52949;BME280;38812;50.942;3.644;2022-08-01T05:07:12;101349.94;;;18.38;100.00
52949;BME280;38812;50.942;3.644;2022-08-01T05:09:40;101349.50;;;18.47;100.00
52949;BME280;38812;50.942;3.644;2022-08-01T05:12:11;101345.72;;;18.53;100.00
52949;BME280;38812;50.942;3.644;2022-08-01T05:14:36;101337.34;;;18.42;100.00
52949;BME280;38812;50.942;3.644;2022-08-01T05:17:04;101373.63;;;18.63;100.00
52949;BME280;38812;50.942;3.644;2022-08-01T05:19:30;101385.72;;;18.70;100.00
52949;BME280;38812;50.942;3.644;2022-08-01T05:22:00;101386.00;;;18.64;100.00
52949;BME280;38812;50.942;3.644;2022-08-01T05:24:27;101373.19;;;18.54;100.00
52949;BME280;38812;50.942;3.644;2022-08-01T05:26:54;101368.72;;;18.54;100.00
52949;BME280;38812;50.942;3.644;2022-08-01T05:29:20;101394.78;;;18.66;100.00
52949;BME280;38812;50.942;3.644;2022-08-01T05:31:45;101393.00;;;18.67;100.00
52949;BME280;38812;50.942;3.644;2022-08-01T05:34:10;101389.31;;;18.69;100.00
52949;BME280;38812;50.942;3.644;2022-08-01T05:36:36;101381.28;;;18.71;100.00
52949;BME280;38812;50.942;3.644;2022-08-01T05:39:03;101324.22;;;18.39;100.00
52949;BME280;38812;50.942;3.644;2022-08-01T05:41:28;101367.03;;;18.72;100.00
52949;BME280;38812;50.942;3.644;2022-08-01T05:43:54;101363.66;;;18.68;100.00
52949;BME280;38812;50.942;3.644;2022-08-01T05:46:19;101394.25;;;18.78;100.00
52949;BME280;38812;50.942;3.644;2022-08-01T05:48:45;101400.72;;;18.92;100.00
52949;BME280;38812;50.942;3.644;2022-08-01T05:51:10;101417.00;;;19.04;100.00
52949;BME280;38812;50.942;3.644;2022-08-01T05:53:36;101447.63;;;19.13;100.00
52949;BME280;38812;50.942;3.644;2022-08-01T05:56:01;101453.66;;;19.35;100.00
52949;BME280;38812;50.942;3.644;2022-08-01T05:58:27;101447.22;;;19.22;100.00
52949;BME280;38812;50.942;3.644;2022-08-01T06:00:52;101502.13;;;19.43;100.00
52949;BME280;38812;50.942;3.644;2022-08-01T06:03:18;101507.53;;;19.42;100.00
52949;BME280;38812;50.942;3.644;2022-08-01T06:05:44;101528.53;;;19.68;100.00
52949;BME280;38812;50.942;3.644;2022-08-01T06:08:09;101544.50;;;19.68;100.00
52949;BME280;38812;50.942;3.644;2022-08-01T06:10:35;101525.56;;;19.56;100.00
52949;BME280;38812;50.942;3.644;2022-08-01T06:13:01;101526.06;;;19.64;100.00
52949;BME280;38812;50.942;3.644;2022-08-01T06:15:29;101549.91;;;19.67;100.00
52949;BME280;38812;50.942;3.644;2022-08-01T06:17:54;101564.03;;;19.69;100.00
52949;BME280;38812;50.942;3.644;2022-08-01T06:20:20;101577.50;;;19.66;100.00
52949;BME280;38812;50.942;3.644;2022-08-01T06:22:45;101568.25;;;19.73;100.00
52949;BME280;38812;50.942;3.644;2022-08-01T06:25:10;101581.31;;;19.79;100.00
52949;BME280;38812;50.942;3.644;2022-08-01T06:27:36;101593.56;;;19.83;100.00
52949;BME280;38812;50.942;3.644;2022-08-01T06:30:03;101607.91;;;19.80;100.00
52949;BME280;38812;50.942;3.644;2022-08-01T06:32:29;101626.31;;;20.23;100.00
52949;BME280;38812;50.942;3.644;2022-08-01T06:34:55;101630.09;;;20.36;100.00
52949;BME280;38812;50.942;3.644;2022-08-01T06:37:21;101605.31;;;20.34;100.00
52949;BME280;38812;50.942;3.644;2022-08-01T06:39:46;101665.03;;;20.67;100.00
52949;BME280;38812;50.942;3.644;2022-08-01T06:42:12;101658.66;;;20.52;100.00
52949;BME280;38812;50.942;3.644;2022-08-01T06:44:39;101672.72;;;20.56;100.00
52949;BME280;38812;50.942;3.644;2022-08-01T06:47:05;101652.75;;;20.46;100.00
52949;BME280;38812;50.942;3.644;2022-08-01T06:49:30;101655.16;;;20.69;100.00
52949;BME280;38812;50.942;3.644;2022-08-01T06:51:55;101655.00;;;20.55;100.00
52949;BME280;38812;50.942;3.644;2022-08-01T06:54:21;101670.53;;;20.81;100.00
52949;BME280;38812;50.942;3.644;2022-08-01T06:56:46;101667.56;;;20.87;100.00
52949;BME280;38812;50.942;3.644;2022-08-01T06:59:12;101685.25;;;20.73;100.00
52949;BME280;38812;50.942;3.644;2022-08-01T07:01:37;101689.75;;;20.53;100.00
52949;BME280;38812;50.942;3.644;2022-08-01T07:04:02;101684.34;;;20.55;100.00
52949;BME280;38812;50.942;3.644;2022-08-01T07:06:28;101686.25;;;20.87;100.00
52949;BME280;38812;50.942;3.644;2022-08-01T07:08:53;101680.75;;;20.91;100.00
52949;BME280;38812;50.942;3.644;2022-08-01T07:11:19;101678.25;;;21.05;100.00
52949;BME280;38812;50.942;3.644;2022-08-01T07:13:45;101675.56;;;21.05;100.00
52949;BME280;38812;50.942;3.644;2022-08-01T07:16:11;101711.50;;;20.99;100.00
52949;BME280;38812;50.942;3.644;2022-08-01T07:18:37;101702.41;;;20.67;100.00
52949;BME280;38812;50.942;3.644;2022-08-01T07:21:02;101658.53;;;20.56;100.00
52949;BME280;38812;50.942;3.644;2022-08-01T07:23:28;101702.19;;;20.72;100.00
52949;BME280;38812;50.942;3.644;2022-08-01T07:25:53;101705.09;;;20.67;100.00
52949;BME280;38812;50.942;3.644;2022-08-01T07:28:18;101698.03;;;21.01;100.00
52949;BME280;38812;50.942;3.644;2022-08-01T07:30:44;101707.25;;;20.95;100.00
52949;BME280;38812;50.942;3.644;2022-08-01T07:33:10;101709.91;;;20.78;100.00
52949;BME280;38812;50.942;3.644;2022-08-01T07:35:36;101712.66;;;21.11;100.00
52949;BME280;38812;50.942;3.644;2022-08-01T07:38:04;101718.34;;;21.22;100.00
52949;BME280;38812;50.942;3.644;2022-08-01T07:40:29;101710.00;;;21.28;100.00
52949;BME280;38812;50.942;3.644;2022-08-01T07:42:55;101753.00;;;22.08;100.00
52949;BME280;38812;50.942;3.644;2022-08-01T07:45:20;101756.66;;;22.23;100.00
52949;BME280;38812;50.942;3.644;2022-08-01T07:47:46;101763.28;;;22.63;100.00
52949;BME280;38812;50.942;3.644;2022-08-01T07:50:12;101742.66;;;22.49;100.00
52949;BME280;38812;50.942;3.644;2022-08-01T07:52:38;101762.59;;;22.60;100.00
52949;BME280;38812;50.942;3.644;2022-08-01T07:55:04;101761.63;;;22.76;100.00
52949;BME280;38812;50.942;3.644;2022-08-01T07:57:29;101772.34;;;22.76;100.00
52949;BME280;38812;50.942;3.644;2022-08-01T07:59:55;101766.84;;;22.48;100.00
52949;BME280;38812;50.942;3.644;2022-08-01T08:02:20;101737.66;;;22.28;100.00
52949;BME280;38812;50.942;3.644;2022-08-01T08:04:46;101772.53;;;22.26;100.00
52949;BME280;38812;50.942;3.644;2022-08-01T08:07:11;101751.81;;;22.30;100.00
52949;BME280;38812;50.942;3.644;2022-08-01T08:09:37;101781.28;;;22.30;100.00
52949;BME280;38812;50.942;3.644;2022-08-01T08:12:02;101770.69;;;21.94;100.00
52949;BME280;38812;50.942;3.644;2022-08-01T08:14:28;101762.75;;;21.92;100.00
52949;BME280;38812;50.942;3.644;2022-08-01T08:16:54;101763.19;;;22.17;100.00
52949;BME280;38812;50.942;3.644;2022-08-01T08:19:19;101777.94;;;21.92;100.00
52949;BME280;38812;50.942;3.644;2022-08-01T08:21:45;101792.16;;;21.76;100.00
52949;BME280;38812;50.942;3.644;2022-08-01T08:24:10;101792.81;;;21.97;100.00
52949;BME280;38812;50.942;3.644;2022-08-01T08:26:49;101788.94;;;22.36;100.00
52949;BME280;38812;50.942;3.644;2022-08-01T08:29:15;101770.63;;;22.75;100.00
52949;BME280;38812;50.942;3.644;2022-08-01T08:31:40;101811.88;;;23.34;100.00
52949;BME280;38812;50.942;3.644;2022-08-01T08:34:06;101788.44;;;23.08;100.00
52949;BME280;38812;50.942;3.644;2022-08-01T08:36:31;101795.72;;;23.36;100.00
52949;BME280;38812;50.942;3.644;2022-08-01T08:38:58;101791.50;;;24.04;100.00
52949;BME280;38812;50.942;3.644;2022-08-01T08:41:25;101802.56;;;24.83;100.00
52949;BME280;38812;50.942;3.644;2022-08-01T08:43:51;101803.81;;;25.84;100.00
52949;BME280;38812;50.942;3.644;2022-08-01T08:46:18;101801.13;;;26.09;100.00
52949;BME280;38812;50.942;3.644;2022-08-01T08:48:44;101802.31;;;26.67;99.50
52949;BME280;38812;50.942;3.644;2022-08-01T08:51:10;101788.84;;;27.39;94.60
52949;BME280;38812;50.942;3.644;2022-08-01T08:53:38;101796.38;;;27.46;84.58
52949;BME280;38812;50.942;3.644;2022-08-01T08:56:08;101827.31;;;26.69;89.15
52949;BME280;38812;50.942;3.644;2022-08-01T08:58:35;101804.69;;;25.97;99.99
52949;BME280;38812;50.942;3.644;2022-08-01T09:01:05;101806.75;;;25.41;100.00
52949;BME280;38812;50.942;3.644;2022-08-01T17:42:19;101731.91;;;24.54;62.05
52949;BME280;38812;50.942;3.644;2022-08-01T17:44:44;101713.16;;;24.40;61.49
52949;BME280;38812;50.942;3.644;2022-08-01T17:47:09;101701.56;;;24.40;62.12
52949;BME280;38812;50.942;3.644;2022-08-01T17:49:35;101703.50;;;24.38;61.88
52949;BME280;38812;50.942;3.644;2022-08-01T17:52:00;101702.81;;;24.34;61.29
52949;BME280;38812;50.942;3.644;2022-08-01T17:54:26;101712.22;;;24.41;62.58
52949;BME280;38812;50.942;3.644;2022-08-01T17:56:51;101734.59;;;24.54;62.05
52949;BME280;38812;50.942;3.644;2022-08-01T17:59:16;101732.78;;;24.55;63.32
52949;BME280;38812;50.942;3.644;2022-08-01T18:01:42;101718.97;;;24.47;62.58
52949;BME280;38812;50.942;3.644;2022-08-01T18:04:07;101734.69;;;24.53;61.81
52949;BME280;38812;50.942;3.644;2022-08-01T18:06:32;101736.63;;;24.51;61.53
52949;BME280;38812;50.942;3.644;2022-08-01T18:08:58;101730.25;;;24.39;61.79
52949;BME280;38812;50.942;3.644;2022-08-01T18:11:23;101710.22;;;24.16;61.75
52949;BME280;38812;50.942;3.644;2022-08-01T18:13:49;101738.41;;;24.23;61.89
52949;BME280;38812;50.942;3.644;2022-08-01T18:16:14;101739.16;;;24.11;63.62
52949;BME280;38812;50.942;3.644;2022-08-01T18:18:40;101743.97;;;23.92;65.53
52949;BME280;38812;50.942;3.644;2022-08-01T18:21:06;101741.13;;;23.81;66.08
52949;BME280;38812;50.942;3.644;2022-08-01T18:23:32;101716.16;;;23.50;66.78
52949;BME280;38812;50.942;3.644;2022-08-01T18:26:00;101740.66;;;23.44;69.45
52949;BME280;38812;50.942;3.644;2022-08-01T18:28:27;101726.09;;;23.34;67.37
52949;BME280;38812;50.942;3.644;2022-08-01T18:30:56;101747.16;;;23.40;68.47
52949;BME280;38812;50.942;3.644;2022-08-01T18:33:22;101733.72;;;23.26;71.96
52949;BME280;38812;50.942;3.644;2022-08-01T18:35:48;101719.00;;;23.03;73.52
52949;BME280;38812;50.942;3.644;2022-08-01T18:38:13;101731.53;;;23.03;73.42
52949;BME280;38812;50.942;3.644;2022-08-01T18:40:39;101721.91;;;22.84;78.03
52949;BME280;38812;50.942;3.644;2022-08-01T18:43:05;101725.28;;;22.72;79.49
52949;BME280;38812;50.942;3.644;2022-08-01T18:45:30;101753.44;;;22.79;85.50
52949;BME280;38812;50.942;3.644;2022-08-01T18:47:56;101688.94;;;22.37;88.90
52949;BME280;38812;50.942;3.644;2022-08-01T18:50:21;101751.53;;;22.66;88.86
52949;BME280;38812;50.942;3.644;2022-08-01T18:52:51;101756.81;;;22.67;84.30
52949;BME280;38812;50.942;3.644;2022-08-01T18:55:16;101730.72;;;22.55;84.00
52949;BME280;38812;50.942;3.644;2022-08-01T18:57:42;101734.72;;;22.48;84.40
52949;BME280;38812;50.942;3.644;2022-08-01T19:00:08;101713.91;;;22.21;87.58
52949;BME280;38812;50.942;3.644;2022-08-01T19:02:34;101739.97;;;22.34;86.24
52949;BME280;38812;50.942;3.644;2022-08-01T19:04:59;101760.19;;;22.39;88.23
52949;BME280;38812;50.942;3.644;2022-08-01T19:07:25;101741.44;;;22.23;89.25
52949;BME280;38812;50.942;3.644;2022-08-01T19:09:50;101746.63;;;22.27;90.07
52949;BME280;38812;50.942;3.644;2022-08-01T19:12:15;101747.31;;;22.30;90.10
52949;BME280;38812;50.942;3.644;2022-08-01T19:14:41;101754.59;;;22.28;90.81
52949;BME280;38812;50.942;3.644;2022-08-01T19:17:06;101731.59;;;22.08;91.40
52949;BME280;38812;50.942;3.644;2022-08-01T19:19:31;101749.72;;;22.03;93.00
52949;BME280;38812;50.942;3.644;2022-08-01T19:21:57;101762.44;;;21.98;92.86
52949;BME280;38812;50.942;3.644;2022-08-01T19:24:22;101762.91;;;21.89;98.39
52949;BME280;38812;50.942;3.644;2022-08-01T19:26:58;101764.38;;;21.79;99.86
52949;BME280;38812;50.942;3.644;2022-08-01T19:29:25;101769.91;;;21.59;100.00
52949;BME280;38812;50.942;3.644;2022-08-01T19:31:53;101745.56;;;21.30;100.00
52949;BME280;38812;50.942;3.644;2022-08-01T19:34:22;101782.66;;;21.36;100.00
52949;BME280;38812;50.942;3.644;2022-08-01T19:36:49;101780.84;;;21.37;100.00
52949;BME280;38812;50.942;3.644;2022-08-01T19:39:16;101755.75;;;21.22;99.83
52949;BME280;38812;50.942;3.644;2022-08-01T19:41:47;101789.88;;;21.34;100.00
52949;BME280;38812;50.942;3.644;2022-08-01T19:44:15;101762.84;;;21.23;97.66
52949;BME280;38812;50.942;3.644;2022-08-01T19:46:42;101784.78;;;21.30;98.83
52949;BME280;38812;50.942;3.644;2022-08-01T19:49:11;101773.38;;;21.26;99.08
52949;BME280;38812;50.942;3.644;2022-08-01T19:51:40;101756.72;;;21.21;98.81
52949;BME280;38812;50.942;3.644;2022-08-01T19:54:09;101777.94;;;21.41;98.65
52949;BME280;38812;50.942;3.644;2022-08-01T19:56:41;101742.50;;;21.20;99.42
52949;BME280;38812;50.942;3.644;2022-08-01T19:59:13;101788.66;;;21.41;100.00
52949;BME280;38812;50.942;3.644;2022-08-01T20:01:39;101754.19;;;21.18;100.00
52949;BME280;38812;50.942;3.644;2022-08-01T20:04:04;101773.22;;;21.29;100.00
52949;BME280;38812;50.942;3.644;2022-08-01T20:06:31;101758.25;;;21.08;100.00
52949;BME280;38812;50.942;3.644;2022-08-01T20:08:57;101783.38;;;21.04;100.00
52949;BME280;38812;50.942;3.644;2022-08-01T20:11:24;101758.91;;;20.77;100.00
52949;BME280;38812;50.942;3.644;2022-08-01T20:13:50;101786.91;;;21.04;100.00
52949;BME280;38812;50.942;3.644;2022-08-01T20:16:16;101763.81;;;21.03;95.97
52949;BME280;38812;50.942;3.644;2022-08-01T20:18:42;101785.31;;;21.19;98.03
52949;BME280;38812;50.942;3.644;2022-08-01T20:21:09;101792.59;;;21.15;100.00
52949;BME280;38812;50.942;3.644;2022-08-01T20:23:37;101766.00;;;20.95;99.28
52949;BME280;38812;50.942;3.644;2022-08-01T20:26:04;101767.81;;;20.95;99.37
52949;BME280;38812;50.942;3.644;2022-08-01T20:28:34;101772.06;;;20.99;96.44
52949;BME280;38812;50.942;3.644;2022-08-01T20:31:01;101772.84;;;21.01;98.59
52949;BME280;38812;50.942;3.644;2022-08-01T20:33:27;101786.25;;;21.18;98.27
52949;BME280;38812;50.942;3.644;2022-08-01T20:35:54;101798.81;;;21.16;97.80
52949;BME280;38812;50.942;3.644;2022-08-01T20:38:24;101788.88;;;21.01;100.00
52949;BME280;38812;50.942;3.644;2022-08-01T20:40:51;101775.38;;;20.68;100.00
52949;BME280;38812;50.942;3.644;2022-08-01T20:43:18;101777.19;;;20.48;100.00
52949;BME280;38812;50.942;3.644;2022-08-01T20:45:45;101782.19;;;20.36;100.00
52949;BME280;38812;50.942;3.644;2022-08-01T20:48:11;101811.72;;;20.33;100.00
52949;BME280;38812;50.942;3.644;2022-08-01T20:50:37;101798.44;;;20.31;100.00
52949;BME280;38812;50.942;3.644;2022-08-01T20:53:22;101774.91;;;20.20;100.00
52949;BME280;38812;50.942;3.644;2022-08-01T20:56:35;101804.00;;;20.27;100.00
52949;BME280;38812;50.942;3.644;2022-08-01T21:01:14;101807.06;;;20.17;100.00
52949;BME280;38812;50.942;3.644;2022-08-01T21:03:57;101788.00;;;19.88;100.00
52949;BME280;38812;50.942;3.644;2022-08-01T21:06:31;101814.53;;;19.91;100.00
52949;BME280;38812;50.942;3.644;2022-08-01T21:09:02;101812.94;;;19.87;100.00
52949;BME280;38812;50.942;3.644;2022-08-01T21:11:36;101805.13;;;19.82;100.00
52949;BME280;38812;50.942;3.644;2022-08-01T21:14:05;101809.47;;;19.84;100.00
52949;BME280;38812;50.942;3.644;2022-08-01T21:16:36;101816.34;;;19.70;100.00
52949;BME280;38812;50.942;3.644;2022-08-01T21:19:12;101789.47;;;19.54;100.00
52949;BME280;38812;50.942;3.644;2022-08-01T21:21:42;101743.69;;;19.24;100.00
52949;BME280;38812;50.942;3.644;2022-08-01T21:24:14;101826.34;;;19.65;100.00
52949;BME280;38812;50.942;3.644;2022-08-01T21:26:42;101791.59;;;19.46;100.00
52949;BME280;38812;50.942;3.644;2022-08-01T21:29:09;101789.94;;;19.43;100.00
52949;BME280;38812;50.942;3.644;2022-08-01T21:31:35;101799.78;;;19.41;100.00
52949;BME280;38812;50.942;3.644;2022-08-01T21:34:03;101816.56;;;19.43;100.00